createdAt,value
2023-04-28T00:01:11.760Z,101379.19
2023-04-28T00:03:38.365Z,101378.97
2023-04-28T00:06:05.257Z,101379.63
2023-04-28T00:08:31.688Z,101375.13
2023-04-28T00:10:57.805Z,101380.53
2023-04-28T00:13:24.215Z,101380.13
2023-04-28T00:15:52.158Z,101378.66
2023-04-28T00:18:19.363Z,101379.78
2023-04-28T00:20:45.610Z,101377.47
2023-04-28T00:23:12.335Z,101389.13
2023-04-28T00:25:38.571Z,101389.41
2023-04-28T00:28:04.934Z,101395.16
2023-04-28T00:30:31.060Z,101387.09
2023-04-28T00:32:57.605Z,101381.84
2023-04-28T00:35:23.853Z,101385.84
2023-04-28T00:37:50.280Z,101388.56
2023-04-28T00:40:16.412Z,101384.53
2023-04-28T00:42:42.729Z,101382.63
2023-04-28T00:45:09.184Z,101385.38
2023-04-28T00:47:37.217Z,101384.75
2023-04-28T00:50:07.462Z,101379.56
2023-04-28T00:52:33.859Z,101385.94
2023-04-28T00:55:00.106Z,101371.44
2023-04-28T00:57:26.501Z,101376.63
2023-04-28T00:59:52.559Z,101369.84
2023-04-28T01:02:19.785Z,101370.13
2023-04-28T01:04:47.470Z,101379.44
2023-04-28T01:07:14.875Z,101375.03
2023-04-28T01:09:41.488Z,101369.00
2023-04-28T01:12:08.989Z,101373.53
2023-04-28T01:14:48.455Z,101363.00
2023-04-28T01:17:15.716Z,101361.75
2023-04-28T01:19:42.292Z,101371.22
2023-04-28T01:22:14.531Z,101370.63
2023-04-28T01:24:40.884Z,101358.09
2023-04-28T01:27:09.149Z,101368.91
2023-04-28T01:29:37.252Z,101357.03
2023-04-28T01:32:04.395Z,101367.44
2023-04-28T01:34:32.607Z,101364.06
2023-04-28T01:36:59.020Z,101360.84
2023-04-28T01:39:25.244Z,101357.91
2023-04-28T01:41:51.575Z,101360.41
2023-04-28T01:44:17.874Z,101356.31
2023-04-28T01:46:44.420Z,101363.81
2023-04-28T01:49:10.655Z,101355.84
2023-04-28T01:51:37.069Z,101356.78
2023-04-28T01:54:03.808Z,101356.69
2023-04-28T01:56:30.234Z,101360.81
2023-04-28T01:58:57.497Z,101355.22
2023-04-28T02:01:23.934Z,101367.00
2023-04-28T02:03:50.354Z,101352.88
2023-04-28T02:06:17.131Z,101357.91
2023-04-28T02:08:43.258Z,101355.47
2023-04-28T02:11:12.116Z,101355.28
2023-04-28T02:13:38.258Z,101349.81
2023-04-28T02:16:05.040Z,101351.19
2023-04-28T02:18:31.247Z,101349.97
2023-04-28T02:21:09.455Z,101346.84
2023-04-28T02:23:35.782Z,101348.59
2023-04-28T02:26:05.288Z,101352.09
2023-04-28T02:28:31.878Z,101352.81
2023-04-28T02:31:08.861Z,101360.03
2023-04-28T02:33:35.666Z,101353.91
2023-04-28T02:36:03.160Z,101348.97
2023-04-28T02:38:29.452Z,101357.00
2023-04-28T02:41:00.426Z,101357.81
2023-04-28T02:43:27.698Z,101352.75
2023-04-28T02:45:54.199Z,101358.63
2023-04-28T02:48:20.295Z,101356.84
2023-04-28T02:50:46.724Z,101356.13
2023-04-28T02:53:12.902Z,101356.97
2023-04-28T02:55:39.309Z,101354.84
2023-04-28T02:58:05.566Z,101357.09
2023-04-28T03:00:32.012Z,101349.31
2023-04-28T03:02:58.648Z,101352.09
2023-04-28T03:05:25.579Z,101344.06
2023-04-28T03:07:51.817Z,101339.53
2023-04-28T03:10:18.207Z,101345.50
2023-04-28T03:12:44.331Z,101339.72
2023-04-28T03:15:13.387Z,101348.22
2023-04-28T03:17:41.520Z,101349.16
2023-04-28T03:20:09.080Z,101344.13
2023-04-28T03:22:35.586Z,101345.78
2023-04-28T03:25:02.436Z,101346.69
2023-04-28T03:27:32.236Z,101344.09
2023-04-28T03:29:58.708Z,101346.34
2023-04-28T03:32:25.134Z,101331.34
2023-04-28T03:34:51.883Z,101348.72
2023-04-28T03:37:18.196Z,101347.81
2023-04-28T03:39:44.944Z,101351.97
2023-04-28T03:42:11.368Z,101342.84
2023-04-28T03:44:57.995Z,101343.44
2023-04-28T03:47:24.186Z,101343.53
2023-04-28T03:49:51.437Z,101342.59
2023-04-28T03:52:17.810Z,101347.13
2023-04-28T03:54:44.276Z,101337.72
2023-04-28T03:57:10.550Z,101345.88
2023-04-28T03:59:37.148Z,101345.59
2023-04-28T04:02:03.758Z,101346.28
2023-04-28T04:04:31.000Z,101338.25
2023-04-28T04:06:58.227Z,101341.28
2023-04-28T04:09:24.897Z,101352.78
2023-04-28T04:11:51.245Z,101343.72
2023-04-28T04:14:17.882Z,101343.88
2023-04-28T04:16:45.764Z,101349.78
2023-04-28T04:19:12.217Z,101362.66
2023-04-28T04:21:40.745Z,101356.00
2023-04-28T04:24:07.418Z,101347.59
2023-04-28T04:26:34.089Z,101350.97
2023-04-28T04:29:01.749Z,101345.97
2023-04-28T04:31:28.197Z,101349.50
2023-04-28T04:33:54.664Z,101350.34
2023-04-28T04:36:21.425Z,101337.16
2023-04-28T04:38:50.211Z,101340.81
2023-04-28T04:41:22.083Z,101347.22
2023-04-28T04:43:52.497Z,101336.50
2023-04-28T04:46:19.256Z,101346.06
2023-04-28T04:48:46.502Z,101343.84
2023-04-28T04:51:13.019Z,101337.81
2023-04-28T04:53:39.606Z,101344.53
2023-04-28T04:56:06.407Z,101341.19
2023-04-28T04:58:35.698Z,101339.66
2023-04-28T05:01:25.215Z,101344.25
2023-04-28T05:03:51.994Z,101337.53
2023-04-28T05:06:18.839Z,101340.47
2023-04-28T05:08:48.982Z,101337.50
2023-04-28T05:11:15.689Z,101336.59
2023-04-28T05:13:42.276Z,101334.69
2023-04-28T05:16:08.472Z,101336.34
2023-04-28T05:18:46.986Z,101340.22
2023-04-28T05:21:14.490Z,101341.50
2023-04-28T05:23:40.852Z,101340.69
2023-04-28T05:26:07.411Z,101348.66
2023-04-28T05:28:34.912Z,101343.84
2023-04-28T05:31:01.450Z,101343.00
2023-04-28T05:33:28.151Z,101347.13
2023-04-28T05:35:54.881Z,101348.56
2023-04-28T05:38:23.290Z,101347.34
2023-04-28T05:40:50.467Z,101340.16
2023-04-28T05:43:17.414Z,101337.75
2023-04-28T05:45:43.825Z,101337.63
2023-04-28T05:48:10.554Z,101329.38
2023-04-28T05:50:39.129Z,101329.06
2023-04-28T05:53:06.921Z,101330.16
2023-04-28T05:55:35.533Z,101339.19
2023-04-28T05:58:02.909Z,101333.00
2023-04-28T06:00:29.206Z,101322.97
2023-04-28T06:02:59.405Z,101319.91
2023-04-28T06:05:26.281Z,101320.03
2023-04-28T06:07:55.569Z,101319.41
2023-04-28T06:10:23.035Z,101319.22
2023-04-28T06:12:49.603Z,101327.34
2023-04-28T06:15:15.825Z,101330.69
2023-04-28T06:17:42.391Z,101332.88
2023-04-28T06:20:10.506Z,101324.03
2023-04-28T06:22:37.658Z,101326.59
2023-04-28T06:25:04.272Z,101325.44
2023-04-28T06:27:35.683Z,101320.88
2023-04-28T06:30:01.965Z,101315.50
2023-04-28T06:32:28.565Z,101327.44
2023-04-28T06:34:56.587Z,101315.09
2023-04-28T06:37:26.123Z,101309.81
2023-04-28T06:39:52.459Z,101311.13
2023-04-28T06:42:19.686Z,101311.34
2023-04-28T06:44:54.911Z,101300.97
2023-04-28T06:47:21.327Z,101304.41
2023-04-28T06:49:49.410Z,101300.94
2023-04-28T06:52:16.031Z,101303.06
2023-04-28T06:54:42.307Z,101297.53
2023-04-28T06:57:08.946Z,101295.44
2023-04-28T06:59:35.230Z,101299.00
2023-04-28T07:02:01.772Z,101294.28
2023-04-28T07:04:27.909Z,101293.78
2023-04-28T07:06:54.456Z,101296.72
2023-04-28T07:09:20.823Z,101288.66
2023-04-28T07:11:47.840Z,101282.97
2023-04-28T07:14:14.206Z,101277.84
2023-04-28T07:16:40.796Z,101285.41
2023-04-28T07:19:07.030Z,101277.34
2023-04-28T07:21:33.935Z,101284.66
2023-04-28T07:24:00.300Z,101280.81
2023-04-28T07:26:26.692Z,101273.13
2023-04-28T07:28:52.749Z,101276.78
2023-04-28T07:31:19.684Z,101261.19
2023-04-28T07:33:45.839Z,101264.03
2023-04-28T07:36:12.474Z,101261.44
2023-04-28T07:38:38.687Z,101258.06
2023-04-28T07:41:06.739Z,101248.09
2023-04-28T07:43:34.924Z,101245.72
2023-04-28T07:46:01.518Z,101252.09
2023-04-28T07:48:28.073Z,101243.22
2023-04-28T07:50:55.024Z,101240.69
2023-04-28T07:53:21.521Z,101236.63
2023-04-28T07:55:47.917Z,101233.44
2023-04-28T07:58:14.042Z,101240.91
2023-04-28T08:00:41.142Z,101230.06
2023-04-28T08:03:07.548Z,101226.09
2023-04-28T08:05:34.201Z,101211.19
2023-04-28T08:08:00.469Z,101220.13
2023-04-28T08:10:28.180Z,101220.38
2023-04-28T08:12:54.290Z,101215.06
2023-04-28T08:15:20.755Z,101212.72
2023-04-28T08:17:46.981Z,101214.63
2023-04-28T08:20:18.904Z,101204.72
2023-04-28T08:22:45.744Z,101209.47
2023-04-28T08:25:12.153Z,101196.84
2023-04-28T08:27:39.312Z,101193.47
2023-04-28T08:30:09.342Z,101200.81
2023-04-28T08:32:35.694Z,101197.56
2023-04-28T08:35:02.664Z,101188.16
2023-04-28T08:37:28.957Z,101190.16
2023-04-28T08:40:01.425Z,101176.63
2023-04-28T08:42:31.556Z,101185.97
2023-04-28T08:44:59.088Z,101182.63
2023-04-28T08:47:40.495Z,101178.31
2023-04-28T08:50:08.167Z,101166.19
2023-04-28T08:52:35.089Z,101162.41
2023-04-28T08:55:07.081Z,101162.22
2023-04-28T08:57:48.720Z,101157.03
2023-04-28T09:00:15.368Z,101161.44
2023-04-28T09:02:41.871Z,101151.06
2023-04-28T09:05:13.176Z,101163.00
2023-04-28T09:07:40.099Z,101151.53
2023-04-28T09:10:15.263Z,101158.09
2023-04-28T09:12:41.827Z,101142.38
2023-04-28T09:15:09.025Z,101151.34
2023-04-28T09:17:49.386Z,101150.44
2023-04-28T09:20:23.619Z,101138.66
2023-04-28T09:22:50.873Z,101141.06
2023-04-28T09:25:18.721Z,101137.22
2023-04-28T09:27:44.859Z,101146.56
2023-04-28T09:30:11.728Z,101139.38
2023-04-28T09:32:37.952Z,101130.53
2023-04-28T09:35:06.659Z,101121.53
2023-04-28T09:37:34.295Z,101132.50
2023-04-28T09:40:08.757Z,101126.75
2023-04-28T09:42:47.154Z,101124.00
2023-04-28T09:45:15.082Z,101121.22
2023-04-28T09:47:46.055Z,101106.22
2023-04-28T09:50:16.205Z,101106.16
2023-04-28T09:52:56.269Z,101100.03
2023-04-28T09:55:23.752Z,101100.19
2023-04-28T09:57:54.217Z,101097.88
2023-04-28T10:00:21.956Z,101095.91
2023-04-28T10:02:49.876Z,101095.78
2023-04-28T10:05:17.242Z,101088.06
2023-04-28T10:07:43.830Z,101091.06
2023-04-28T10:10:13.842Z,101091.72
2023-04-28T10:12:40.529Z,101075.00
2023-04-28T10:15:09.527Z,101073.81
2023-04-28T10:17:36.135Z,101079.09
2023-04-28T10:20:02.954Z,101067.50
2023-04-28T10:22:47.060Z,101063.47
2023-04-28T10:25:33.302Z,101059.56
2023-04-28T10:28:00.399Z,101060.59
2023-04-28T10:30:30.579Z,101055.28
2023-04-28T10:33:05.916Z,101052.06
2023-04-28T10:35:39.904Z,101056.22
2023-04-28T10:38:18.064Z,101043.69
2023-04-28T10:40:49.792Z,101042.66
2023-04-28T10:43:25.320Z,101037.06
2023-04-28T10:45:55.327Z,101032.25
2023-04-28T10:48:43.223Z,101036.00
2023-04-28T10:51:11.978Z,101025.28
2023-04-28T10:53:43.926Z,101025.25
2023-04-28T10:56:10.960Z,101020.31
2023-04-28T10:58:45.257Z,101011.69
2023-04-28T11:01:20.855Z,101006.09
2023-04-28T11:03:48.183Z,101005.34
2023-04-28T11:06:25.980Z,101003.94
2023-04-28T11:08:55.076Z,101011.03
2023-04-28T11:11:34.119Z,100997.09
2023-04-28T11:14:41.993Z,100999.88
2023-04-28T11:17:12.585Z,100989.91
2023-04-28T11:19:41.451Z,100989.25
2023-04-28T11:22:19.543Z,100991.72
2023-04-28T11:24:59.918Z,100985.66
2023-04-28T11:27:29.408Z,100982.72
2023-04-28T11:29:56.006Z,100992.84
2023-04-28T11:32:34.096Z,100989.09
2023-04-28T11:35:00.696Z,100987.16
2023-04-28T11:37:27.418Z,100984.22
2023-04-28T11:39:53.868Z,100977.81
2023-04-28T11:42:20.680Z,100980.41
2023-04-28T11:44:52.128Z,100976.78
2023-04-28T11:47:34.246Z,100972.06
2023-04-28T11:50:02.092Z,100979.50
2023-04-28T11:52:28.854Z,100970.69
2023-04-28T11:54:57.311Z,100970.44
2023-04-28T11:57:24.873Z,100973.88
2023-04-28T11:59:51.302Z,100963.31
2023-04-28T12:02:30.693Z,100963.59
2023-04-28T12:05:05.849Z,100967.34
2023-04-28T12:07:41.626Z,100961.13
2023-04-28T12:10:11.584Z,100961.53
2023-04-28T12:15:08.734Z,100960.06
2023-04-28T12:17:36.642Z,100956.13
2023-04-28T12:20:11.172Z,100945.94
2023-04-28T12:22:44.386Z,100943.22
2023-04-28T12:25:12.423Z,100939.41
2023-04-28T12:27:40.299Z,100951.75
2023-04-28T12:30:18.874Z,100940.75
2023-04-28T12:32:46.040Z,100931.91
2023-04-28T12:35:12.934Z,100936.94
2023-04-28T12:37:41.378Z,100927.72
2023-04-28T12:40:08.764Z,100920.53
2023-04-28T12:42:36.177Z,100926.72
2023-04-28T12:45:02.709Z,100927.16
2023-04-28T12:47:29.345Z,100920.19
2023-04-28T12:49:55.697Z,100917.03
2023-04-28T12:52:22.440Z,100917.06
2023-04-28T12:54:48.785Z,100904.50
2023-04-28T12:57:16.878Z,100911.88
2023-04-28T12:59:43.646Z,100915.56
2023-04-28T13:02:10.431Z,100906.91
2023-04-28T13:04:37.192Z,100904.06
2023-04-28T13:07:03.775Z,100904.75
2023-04-28T13:09:30.245Z,100898.47
2023-04-28T13:11:57.816Z,100895.13
2023-04-28T13:14:25.354Z,100892.84
2023-04-28T13:16:52.239Z,100885.41
2023-04-28T13:19:18.618Z,100885.22
2023-04-28T13:21:46.388Z,100877.97
2023-04-28T13:24:13.348Z,100871.31
2023-04-28T13:26:39.945Z,100870.50
2023-04-28T13:29:07.750Z,100877.44
2023-04-28T13:31:34.566Z,100866.03
2023-04-28T13:34:01.480Z,100863.28
2023-04-28T13:36:32.412Z,100863.91
2023-04-28T13:39:01.634Z,100854.81
2023-04-28T13:41:29.067Z,100854.81
2023-04-28T13:43:55.380Z,100850.81
2023-04-28T13:46:22.003Z,100847.63
2023-04-28T13:48:49.056Z,100845.53
2023-04-28T13:51:16.193Z,100846.41
2023-04-28T13:53:42.353Z,100834.56
2023-04-28T13:56:08.794Z,100836.25
2023-04-28T13:58:35.126Z,100835.63
2023-04-28T14:01:03.210Z,100831.13
2023-04-28T14:03:29.607Z,100826.13
2023-04-28T14:05:57.581Z,100819.81
2023-04-28T14:08:25.945Z,100818.03
2023-04-28T14:10:54.294Z,100810.19
2023-04-28T14:13:20.637Z,100802.38
2023-04-28T14:15:57.897Z,100807.69
2023-04-28T14:18:25.970Z,100800.91
2023-04-28T14:20:53.653Z,100796.69
2023-04-28T14:23:20.487Z,100789.38
2023-04-28T14:25:47.385Z,100795.09
2023-04-28T14:28:13.832Z,100787.13
2023-04-28T14:30:41.100Z,100784.25
2023-04-28T14:33:07.456Z,100780.56
2023-04-28T14:35:34.199Z,100786.28
2023-04-28T14:38:00.676Z,100785.22
2023-04-28T14:40:27.049Z,100770.88
2023-04-28T14:42:53.260Z,100773.63
2023-04-28T14:45:19.709Z,100777.63
2023-04-28T14:47:46.338Z,100765.56
2023-04-28T14:50:14.115Z,100772.34
2023-04-28T14:52:41.747Z,100761.56
2023-04-28T14:55:08.522Z,100758.16
2023-04-28T14:57:34.904Z,100743.38
2023-04-28T15:00:03.277Z,100747.41
2023-04-28T15:02:29.910Z,100752.69
2023-04-28T15:04:57.529Z,100748.03
2023-04-28T15:07:30.251Z,100747.81
2023-04-28T15:09:58.737Z,100745.91
2023-04-28T15:12:25.578Z,100730.63
2023-04-28T15:14:53.000Z,100742.88
2023-04-28T15:17:20.459Z,100736.75
2023-04-28T15:19:47.113Z,100732.94
2023-04-28T15:22:13.189Z,100728.69
2023-04-28T15:24:39.920Z,100724.25
2023-04-28T15:27:06.295Z,100727.59
2023-04-28T15:29:32.779Z,100718.25
2023-04-28T15:31:59.342Z,100722.72
2023-04-28T15:34:25.931Z,100717.56
2023-04-28T15:36:53.210Z,100719.03
2023-04-28T15:39:20.272Z,100719.22
2023-04-28T15:41:46.994Z,100719.66
2023-04-28T15:44:13.685Z,100707.16
2023-04-28T15:46:40.118Z,100711.16
2023-04-28T15:49:07.810Z,100708.63
2023-04-28T15:51:34.131Z,100706.91
2023-04-28T15:54:00.838Z,100697.44
2023-04-28T15:56:27.724Z,100705.34
2023-04-28T15:58:54.558Z,100697.72
2023-04-28T16:01:21.847Z,100699.63
2023-04-28T16:03:48.924Z,100690.69
2023-04-28T16:06:15.251Z,100689.78
2023-04-28T16:08:42.144Z,100689.44
2023-04-28T16:11:10.255Z,100688.75
2023-04-28T16:13:36.852Z,100685.75
2023-04-28T16:16:03.996Z,100681.53
2023-04-28T16:18:30.532Z,100681.88
2023-04-28T16:20:57.694Z,100689.00
2023-04-28T16:23:23.998Z,100693.19
2023-04-28T16:25:50.647Z,100675.38
2023-04-28T16:28:16.983Z,100684.00
2023-04-28T16:30:43.848Z,100686.47
2023-04-28T16:33:10.599Z,100681.53
2023-04-28T16:35:37.172Z,100672.19
2023-04-28T16:38:03.372Z,100677.03
2023-04-28T16:40:30.015Z,100675.84
2023-04-28T16:42:56.710Z,100669.31
2023-04-28T16:45:23.459Z,100667.63
2023-04-28T16:47:49.995Z,100667.44
2023-04-28T16:50:17.038Z,100659.09
2023-04-28T16:52:43.174Z,100664.38
2023-04-28T16:55:10.023Z,100663.25
2023-04-28T16:57:36.187Z,100656.28
2023-04-28T17:00:04.044Z,100664.28
2023-04-28T17:02:32.055Z,100658.34
2023-04-28T17:04:58.856Z,100658.94
2023-04-28T17:07:25.684Z,100654.03
2023-04-28T17:09:52.526Z,100652.09
2023-04-28T17:12:20.268Z,100650.56
2023-04-28T17:14:47.056Z,100650.97
2023-04-28T17:17:13.851Z,100648.63
2023-04-28T17:19:41.520Z,100646.66
2023-04-28T17:22:07.937Z,100648.06
2023-04-28T17:24:34.502Z,100641.22
2023-04-28T17:27:00.687Z,100639.44
2023-04-28T17:29:27.223Z,100642.47
2023-04-28T17:31:53.631Z,100640.56
2023-04-28T17:34:20.332Z,100634.66
2023-04-28T17:36:46.563Z,100636.16
2023-04-28T17:39:16.007Z,100631.03
2023-04-28T17:41:42.981Z,100630.47
2023-04-28T17:44:10.026Z,100636.84
2023-04-28T17:46:37.894Z,100632.13
2023-04-28T17:49:04.710Z,100631.72
2023-04-28T17:51:31.670Z,100635.84
2023-04-28T17:53:58.570Z,100625.38
2023-04-28T17:56:25.119Z,100625.91
2023-04-28T17:58:51.778Z,100627.84
2023-04-28T18:01:18.227Z,100624.63
2023-04-28T18:03:44.968Z,100626.59
2023-04-28T18:06:13.004Z,100626.16
2023-04-28T18:08:39.834Z,100625.00
2023-04-28T18:11:09.577Z,100626.56
2023-04-28T18:13:36.450Z,100623.34
2023-04-28T18:16:04.192Z,100627.63
2023-04-28T18:18:33.924Z,100625.94
2023-04-28T18:21:02.244Z,100627.31
2023-04-28T18:23:29.759Z,100625.75
2023-04-28T18:25:56.045Z,100625.94
2023-04-28T18:28:22.551Z,100628.66
2023-04-28T18:30:49.070Z,100621.66
2023-04-28T18:33:20.676Z,100626.59
2023-04-28T18:35:57.490Z,100619.28
2023-04-28T18:38:24.274Z,100621.50
2023-04-28T18:40:50.622Z,100624.78
2023-04-28T18:43:17.591Z,100619.16
2023-04-28T18:45:44.309Z,100621.88
2023-04-28T18:48:11.494Z,100626.66
2023-04-28T18:50:38.376Z,100628.88
2023-04-28T18:53:07.789Z,100615.81
2023-04-28T18:55:34.089Z,100619.59
2023-04-28T18:58:03.736Z,100626.06
2023-04-28T19:00:31.811Z,100627.75
2023-04-28T19:02:58.538Z,100624.53
2023-04-28T19:05:25.748Z,100623.03
2023-04-28T19:07:52.452Z,100624.72
2023-04-28T19:10:18.772Z,100624.91
2023-04-28T19:12:45.229Z,100624.72
2023-04-28T19:15:11.889Z,100622.00
2023-04-28T19:17:38.832Z,100624.38
2023-04-28T19:20:05.854Z,100622.66
2023-04-28T19:22:36.399Z,100618.59
2023-04-28T19:25:04.590Z,100619.25
2023-04-28T19:27:32.876Z,100620.44
2023-04-28T19:30:00.530Z,100618.91
2023-04-28T19:32:27.702Z,100612.28
2023-04-28T19:34:54.335Z,100608.53
2023-04-28T19:37:21.800Z,100614.00
2023-04-28T19:39:50.356Z,100612.28
2023-04-28T19:42:17.402Z,100614.16
2023-04-28T19:44:45.295Z,100604.66
2023-04-28T19:47:12.908Z,100603.28
2023-04-28T19:49:41.515Z,100609.25
2023-04-28T19:52:09.506Z,100606.19
2023-04-28T19:54:37.521Z,100607.22
2023-04-28T19:57:04.172Z,100601.09
2023-04-28T19:59:30.621Z,100606.22
2023-04-28T20:01:57.198Z,100606.88
2023-04-28T20:04:23.667Z,100596.16
2023-04-28T20:06:50.876Z,100600.75
2023-04-28T20:09:17.095Z,100600.94
2023-04-28T20:11:43.464Z,100596.16
2023-04-28T20:14:09.656Z,100598.88
2023-04-28T20:16:36.064Z,100593.44
2023-04-28T20:19:02.560Z,100595.00
2023-04-28T20:21:29.104Z,100597.38
2023-04-28T20:23:55.447Z,100595.84
2023-04-28T20:26:24.160Z,100599.94
2023-04-28T20:28:50.447Z,100592.81
2023-04-28T20:31:17.033Z,100596.91
2023-04-28T20:33:43.213Z,100585.69
2023-04-28T20:36:09.761Z,100581.13
2023-04-28T20:38:36.558Z,100590.16
2023-04-28T20:41:03.746Z,100590.69
2023-04-28T20:43:29.967Z,100589.81
2023-04-28T20:45:57.047Z,100589.16
2023-04-28T20:48:23.464Z,100588.47
2023-04-28T20:50:52.477Z,100578.44
2023-04-28T20:53:18.772Z,100589.47
2023-04-28T20:55:45.440Z,100581.47
2023-04-28T20:58:12.321Z,100583.00
2023-04-28T21:00:40.463Z,100576.53
2023-04-28T21:03:06.949Z,100586.41
2023-04-28T21:05:33.685Z,100580.09
2023-04-28T21:07:59.775Z,100583.31
2023-04-28T21:10:27.151Z,100584.00
2023-04-28T21:12:53.355Z,100585.03
2023-04-28T21:15:19.852Z,100582.81
2023-04-28T21:17:46.183Z,100581.44
2023-04-28T21:20:13.056Z,100582.50
2023-04-28T21:22:58.291Z,100569.09
2023-04-28T21:25:25.473Z,100582.56
2023-04-28T21:27:52.468Z,100575.94
2023-04-28T21:30:19.984Z,100571.88
2023-04-28T21:32:46.486Z,100562.53
2023-04-28T21:35:13.352Z,100565.25
2023-04-28T21:37:40.076Z,100559.31
2023-04-28T21:40:08.291Z,100554.03
2023-04-28T21:42:34.648Z,100553.88
2023-04-28T21:45:01.180Z,100555.06
2023-04-28T21:47:27.716Z,100553.19
2023-04-28T21:49:54.187Z,100555.56
2023-04-28T21:52:20.290Z,100552.56
2023-04-28T21:54:47.261Z,100546.06
2023-04-28T21:57:15.012Z,100539.28
2023-04-28T21:59:41.702Z,100548.81
2023-04-28T22:02:08.131Z,100547.63
2023-04-28T22:04:35.332Z,100541.69
2023-04-28T22:07:04.391Z,100545.44
2023-04-28T22:09:31.392Z,100547.97
2023-04-28T22:11:57.474Z,100551.03
2023-04-28T22:14:39.458Z,100544.59
2023-04-28T22:17:06.928Z,100539.13
2023-04-28T22:19:33.337Z,100533.19
2023-04-28T22:21:59.512Z,100538.13
2023-04-28T22:24:26.982Z,100531.84
2023-04-28T22:26:54.070Z,100524.00
2023-04-28T22:29:20.772Z,100523.00
2023-04-28T22:31:47.089Z,100521.47
2023-04-28T22:34:13.724Z,100528.94
2023-04-28T22:36:39.824Z,100523.69
2023-04-28T22:39:06.610Z,100523.19
2023-04-28T22:41:32.709Z,100519.59
2023-04-28T22:43:59.094Z,100525.38
2023-04-28T22:46:25.631Z,100521.13
2023-04-28T22:48:52.110Z,100520.97
2023-04-28T22:51:18.283Z,100522.66
2023-04-28T22:53:45.843Z,100521.31
2023-04-28T22:56:11.978Z,100524.03
2023-04-28T22:58:38.385Z,100522.00
2023-04-28T23:01:04.954Z,100522.34
2023-04-28T23:03:33.210Z,100528.28
2023-04-28T23:05:59.645Z,100516.56
2023-04-28T23:08:26.112Z,100518.25
2023-04-28T23:10:55.565Z,100522.00
2023-04-28T23:13:21.990Z,100522.84
2023-04-28T23:15:48.193Z,100510.09
2023-04-28T23:18:14.628Z,100512.13
2023-04-28T23:20:40.788Z,100514.00
2023-04-28T23:23:07.328Z,100509.91
2023-04-28T23:25:33.363Z,100507.38
2023-04-28T23:27:59.813Z,100503.47
2023-04-28T23:30:26.148Z,100497.16
2023-04-28T23:32:52.732Z,100501.25
2023-04-28T23:35:21.442Z,100509.06
2023-04-28T23:37:48.614Z,100493.09
2023-04-28T23:40:15.035Z,100492.25
2023-04-28T23:42:44.235Z,100492.94
2023-04-28T23:45:10.784Z,100496.16
2023-04-28T23:47:37.405Z,100490.72
2023-04-28T23:50:04.238Z,100486.28
2023-04-28T23:52:30.800Z,100480.00
2023-04-28T23:54:56.904Z,100481.03
2023-04-28T23:57:23.675Z,100485.63
2023-04-28T23:59:49.931Z,100470.16
